KFKL/FKL METAR and TAF weather

Enter ICAO airport designator
Station Type Date Time Source
KFKL METAR 2020/10/29 17:27 UTC NOAA

KFKL 291727Z AUTO 04008KT 9SM RA OVC004 06/06 A2967 RMK AO2 P0004


Station Type Date Time Source
KFKL Decoded METAR 2020/10/29 17:27 UTC NOAA

Franklin, Venango Regional Airport, PA, United States (KFKL) 41-23N 079-52W
Oct 29, 2020 - 01:27 PM EDT / 2020.10.29 1727 UTC
Wind: from the NE (040 degrees) at 9 MPH (8 KT):0
Visibility: 9 mile(s):0
Sky conditions: overcast
Weather: rain
Precipitation last hour: 0.04 inches
Temperature: 42 F (6 C)
Dew Point: 42 F (6 C)
Relative Humidity: 100%
Pressure (altimeter): 29.67 in. Hg (1004 hPa)
ob: KFKL 291727Z AUTO 04008KT 9SM RA OVC004 06/06 A2967 RMK AO2 P0004
cycle: 17

Station Type Date Time Source
KFKL TAF 2020/10/29 18:22 UTC NOAA

TAF KFKL 291720Z 2918/3018 05007KT 4SM -SHRA BR OVC003
FM300100 02007KT 3SM -SHRA BR OVC006
FM300800 01007KT P6SM VCSH OVC006
FM301000 01006KT P6SM BKN010
FM301600 36006KT P6SM BKN025

Example: see airport list